Airport View

Enter AWOS ICAO identifier for current METAR.

ex. KFNL

KRUQ 192350Z AUTO 00000KT 10SM CLR 13/12 A3025 RMK AO2 T01340124 10219 20134

19 Oct 2020 23:54

Frequency: 118.175

Phone: 704-637-6197

Other Area AWOS: KEXX - KJQF - KSVH - KVUJ

TAF KINT 191739Z 1918/2018 VRB03KT P6SM FEW250 FM200800 VRB03KT 3SM BR SCT003 TEMPO 2010/2014 1SM BR BKN002 FM201600 VRB03KT P6SM SKC